createdAt,value
2023-04-05T00:01:09.454Z,56.56
2023-04-05T00:03:37.392Z,57.93
2023-04-05T00:06:05.880Z,59.29
2023-04-05T00:08:33.703Z,60.42
2023-04-05T00:11:01.508Z,61.56
2023-04-05T00:13:29.313Z,62.43
2023-04-05T00:15:58.479Z,64.17
2023-04-05T00:18:26.408Z,61.49
2023-04-05T00:20:54.383Z,56.99
2023-04-05T00:23:22.952Z,56.50
2023-04-05T00:25:51.114Z,57.89
2023-04-05T00:28:18.916Z,59.03
2023-04-05T00:30:46.948Z,59.29
2023-04-05T00:33:14.947Z,59.89
2023-04-05T00:35:42.896Z,60.73
2023-04-05T00:38:10.818Z,61.90
2023-04-05T00:40:38.704Z,63.60
2023-04-05T00:43:06.547Z,61.67
2023-04-05T00:45:34.502Z,56.47
2023-04-05T00:48:02.502Z,55.60
2023-04-05T00:50:31.045Z,57.15
2023-04-05T00:52:59.201Z,58.41
2023-04-05T00:55:27.273Z,59.31
2023-04-05T00:57:56.019Z,60.19
2023-04-05T01:00:24.495Z,60.72
2023-04-05T01:02:55.836Z,61.75
2023-04-05T01:05:30.277Z,61.14
2023-04-05T01:08:30.133Z,61.46
2023-04-05T01:11:02.878Z,61.79
2023-04-05T01:13:30.787Z,63.77
2023-04-05T01:15:59.192Z,63.23
2023-04-05T01:18:27.871Z,59.12
2023-04-05T01:21:23.209Z,55.71
2023-04-05T01:24:09.926Z,56.92
2023-04-05T01:26:51.952Z,58.39
2023-04-05T01:30:11.356Z,59.35
2023-04-05T01:32:51.067Z,60.53
2023-04-05T01:35:27.308Z,61.88
2023-04-05T01:38:00.910Z,63.45
2023-04-05T01:40:31.277Z,61.68
2023-04-05T01:43:03.067Z,57.60
2023-04-05T01:45:31.932Z,57.71
2023-04-05T01:47:59.813Z,59.32
2023-04-05T01:50:27.757Z,60.68
2023-04-05T01:52:55.713Z,61.71
2023-04-05T01:55:23.557Z,62.76
2023-04-05T01:57:56.498Z,63.38
2023-04-05T02:00:24.815Z,59.67
2023-04-05T02:02:52.993Z,56.37
2023-04-05T02:05:21.022Z,57.22
2023-04-05T02:07:48.926Z,58.73
2023-04-05T02:10:18.465Z,59.93
2023-04-05T02:12:46.496Z,61.07
2023-04-05T02:15:14.323Z,62.12
2023-04-05T02:17:45.803Z,63.78
2023-04-05T02:20:14.776Z,61.42
2023-04-05T02:22:45.619Z,57.20
2023-04-05T02:25:13.844Z,57.26
2023-04-05T02:27:41.630Z,59.15
2023-04-05T02:30:10.582Z,60.65
2023-04-05T02:32:38.409Z,61.55
2023-04-05T02:35:07.033Z,62.25
2023-04-05T02:37:35.177Z,63.65
2023-04-05T02:40:06.423Z,61.06
2023-04-05T02:42:34.203Z,56.47
2023-04-05T02:45:02.526Z,56.33
2023-04-05T02:47:30.410Z,58.03
2023-04-05T02:49:58.414Z,59.50
2023-04-05T02:52:26.263Z,60.60
2023-04-05T02:54:54.154Z,61.60
2023-04-05T02:57:22.591Z,62.88
2023-04-05T02:59:52.121Z,62.53
2023-04-05T03:02:20.481Z,58.38
2023-04-05T03:04:48.359Z,56.12
2023-04-05T03:07:18.686Z,57.65
2023-04-05T03:09:47.543Z,59.30
2023-04-05T03:12:15.678Z,60.61
2023-04-05T03:14:43.611Z,61.50
2023-04-05T03:17:12.581Z,62.33
2023-04-05T03:19:40.451Z,63.99
2023-04-05T03:22:08.584Z,61.73
2023-04-05T03:24:36.364Z,57.29
2023-04-05T03:27:06.118Z,56.76
2023-04-05T03:29:34.080Z,58.34
2023-04-05T03:32:01.979Z,59.73
2023-04-05T03:34:29.894Z,60.91
2023-04-05T03:36:57.793Z,61.99
2023-04-05T03:39:25.704Z,63.75
2023-04-05T03:41:53.647Z,61.65
2023-04-05T03:44:21.445Z,57.26
2023-04-05T03:46:49.365Z,57.00
2023-04-05T03:49:17.210Z,58.67
2023-04-05T03:51:44.952Z,60.21
2023-04-05T03:54:12.795Z,61.33
2023-04-05T03:56:40.724Z,62.28
2023-04-05T03:59:09.126Z,64.05
2023-04-05T04:01:37.133Z,61.75
2023-04-05T04:04:05.168Z,57.06
2023-04-05T04:06:33.396Z,56.66
2023-04-05T04:09:01.354Z,58.17
2023-04-05T04:11:29.166Z,59.60
2023-04-05T04:13:57.051Z,60.72
2023-04-05T04:16:26.718Z,61.83
2023-04-05T04:18:56.427Z,63.65
2023-04-05T04:21:25.427Z,61.65
2023-04-05T04:23:53.333Z,57.08
2023-04-05T04:26:26.958Z,56.69
2023-04-05T04:28:57.729Z,58.43
2023-04-05T04:31:25.546Z,59.94
2023-04-05T04:33:53.394Z,60.99
2023-04-05T04:36:36.177Z,62.20
2023-04-05T04:39:07.171Z,63.79
2023-04-05T04:41:36.029Z,60.98
2023-04-05T04:44:05.457Z,56.48
2023-04-05T04:46:42.793Z,56.51
2023-04-05T04:49:10.843Z,58.33
2023-04-05T04:51:39.216Z,59.93
2023-04-05T04:54:07.541Z,61.23
2023-04-05T04:56:35.327Z,62.08
2023-04-05T04:59:06.582Z,63.91
2023-04-05T05:01:34.587Z,61.57
2023-04-05T05:04:04.216Z,57.10
2023-04-05T05:06:32.065Z,56.76
2023-04-05T05:08:59.836Z,58.28
2023-04-05T05:11:29.019Z,59.49
2023-04-05T05:13:56.760Z,60.47
2023-04-05T05:16:24.732Z,61.33
2023-04-05T05:18:52.915Z,62.44
2023-04-05T05:21:21.059Z,63.92
2023-04-05T05:23:49.029Z,60.87
2023-04-05T05:26:16.892Z,56.59
2023-04-05T05:28:45.981Z,56.89
2023-04-05T05:31:18.207Z,58.90
2023-04-05T05:33:49.525Z,60.12
2023-04-05T05:36:20.205Z,61.34
2023-04-05T05:38:49.190Z,62.47
2023-04-05T05:41:17.145Z,63.27
2023-04-05T05:43:45.009Z,59.99
2023-04-05T05:46:13.357Z,56.09
2023-04-05T05:48:41.971Z,56.89
2023-04-05T05:51:10.049Z,59.29
2023-04-05T05:53:39.421Z,60.76
2023-04-05T05:56:07.536Z,61.96
2023-04-05T05:58:35.363Z,63.83
2023-04-05T06:01:04.062Z,61.92
2023-04-05T06:03:32.150Z,57.43
2023-04-05T06:06:00.216Z,56.83
2023-04-05T06:08:28.024Z,58.34
2023-04-05T06:10:56.006Z,59.41
2023-04-05T06:13:24.140Z,60.15
2023-04-05T06:15:51.952Z,60.71
2023-04-05T06:18:20.881Z,61.52
2023-04-05T06:20:48.742Z,62.06
2023-04-05T06:23:16.504Z,63.51
2023-04-05T06:25:44.505Z,61.55
2023-04-05T06:28:12.311Z,56.89
2023-04-05T06:30:40.272Z,56.14
2023-04-05T06:33:08.205Z,56.62
2023-04-05T06:35:36.207Z,57.62
2023-04-05T06:38:04.048Z,58.12
2023-04-05T06:40:31.994Z,59.04
2023-04-05T06:42:59.833Z,59.54
2023-04-05T06:45:27.703Z,60.22
2023-04-05T06:47:55.977Z,60.67
2023-04-05T06:50:24.091Z,61.05
2023-04-05T06:52:51.944Z,61.38
2023-04-05T06:55:19.776Z,61.99
2023-04-05T06:57:47.596Z,62.12
2023-04-05T07:00:17.511Z,63.14
2023-04-05T07:02:45.456Z,60.95
2023-04-05T07:05:13.274Z,55.98
2023-04-05T07:07:43.305Z,54.80
2023-04-05T07:10:11.653Z,56.55
2023-04-05T07:12:40.036Z,57.96
2023-04-05T07:15:08.841Z,58.65
2023-04-05T07:17:36.741Z,58.41
2023-04-05T07:20:08.225Z,58.22
2023-04-05T07:22:36.095Z,57.90
2023-04-05T07:25:05.613Z,58.08
2023-04-05T07:27:33.404Z,58.62
2023-04-05T07:30:01.626Z,58.69
2023-04-05T07:32:29.601Z,58.93
2023-04-05T07:34:57.597Z,59.36
2023-04-05T07:37:27.325Z,59.35
2023-04-05T07:39:55.198Z,59.65
2023-04-05T07:42:23.161Z,59.69
2023-04-05T07:44:51.040Z,59.61
2023-04-05T07:47:18.867Z,59.30
2023-04-05T07:49:46.699Z,58.63
2023-04-05T07:52:14.713Z,57.96
2023-04-05T07:54:43.468Z,58.00
2023-04-05T07:57:17.682Z,58.67
2023-04-05T07:59:46.122Z,58.08
2023-04-05T08:02:14.964Z,56.71
2023-04-05T08:04:43.448Z,56.72
2023-04-05T08:07:11.689Z,58.09
2023-04-05T08:09:39.524Z,58.07
2023-04-05T08:12:07.780Z,57.95
2023-04-05T08:14:35.858Z,57.37
2023-04-05T08:17:03.857Z,55.88
2023-04-05T08:19:31.900Z,56.06
2023-04-05T08:21:59.637Z,55.94
2023-04-05T08:24:27.517Z,52.24
2023-04-05T08:26:59.264Z,51.79
2023-04-05T08:29:27.080Z,51.06
2023-04-05T08:31:58.659Z,54.10
2023-04-05T08:34:26.597Z,51.54
2023-04-05T08:36:59.621Z,52.21
2023-04-05T08:39:27.599Z,50.88
2023-04-05T08:42:09.663Z,49.99
2023-04-05T08:44:38.100Z,49.36
2023-04-05T08:47:05.970Z,47.61
2023-04-05T08:49:33.923Z,46.37
2023-04-05T08:52:03.167Z,46.32
2023-04-05T08:54:31.063Z,44.67
2023-04-05T08:56:59.821Z,43.17
2023-04-05T08:59:27.773Z,43.33
2023-04-05T09:01:56.106Z,42.83
2023-04-05T09:04:27.432Z,44.64
2023-04-05T09:06:58.956Z,44.97
2023-04-05T09:09:33.074Z,41.01
2023-04-05T09:12:01.480Z,40.37
2023-04-05T09:14:31.371Z,38.72
2023-04-05T09:17:02.935Z,39.25
2023-04-05T09:19:30.914Z,39.76
2023-04-05T09:22:09.817Z,39.85
2023-04-05T09:24:42.024Z,40.11
2023-04-05T09:27:20.528Z,39.94
2023-04-05T09:29:50.467Z,39.40
2023-04-05T09:32:21.306Z,38.32
2023-04-05T09:34:50.322Z,37.26
2023-04-05T09:37:21.843Z,35.78
2023-04-05T09:39:52.170Z,33.70
2023-04-05T09:42:23.339Z,33.53
2023-04-05T09:45:01.544Z,33.34
2023-04-05T09:47:33.142Z,33.37
2023-04-05T09:50:02.440Z,32.62
2023-04-05T09:52:32.273Z,31.56
2023-04-05T09:55:04.586Z,30.22
2023-04-05T09:57:41.145Z,29.22
2023-04-05T10:00:19.740Z,29.52
2023-04-05T10:02:47.799Z,27.95
2023-04-05T10:05:15.960Z,26.35
2023-04-05T10:07:45.157Z,26.44
2023-04-05T10:10:13.548Z,26.55
2023-04-05T10:12:42.401Z,27.23
2023-04-05T10:15:12.285Z,29.63
2023-04-05T10:17:52.428Z,31.09
2023-04-05T10:20:24.960Z,30.99
2023-04-05T10:23:05.131Z,31.31
2023-04-05T10:25:54.077Z,30.81
2023-04-05T10:28:33.050Z,29.59
2023-04-05T10:31:39.011Z,29.82
2023-04-05T10:34:09.142Z,28.64
2023-04-05T10:36:48.748Z,28.36
2023-04-05T10:39:45.843Z,28.06
2023-04-05T10:42:28.864Z,27.77
2023-04-05T10:45:04.885Z,27.62
2023-04-05T10:47:38.776Z,27.37
2023-04-05T10:50:09.492Z,28.80
2023-04-05T10:52:37.542Z,28.77
2023-04-05T10:55:06.312Z,29.29
2023-04-05T10:57:35.022Z,29.30
2023-04-05T11:00:03.326Z,28.57
2023-04-05T11:02:31.576Z,27.85
2023-04-05T11:05:04.904Z,28.24
2023-04-05T11:07:45.926Z,28.90
2023-04-05T11:10:19.214Z,29.42
2023-04-05T11:12:47.043Z,29.54
2023-04-05T11:15:44.013Z,29.91
2023-04-05T11:18:18.034Z,29.42
2023-04-05T11:20:56.202Z,28.90
2023-04-05T11:23:25.368Z,29.60
2023-04-05T11:25:57.666Z,29.85
2023-04-05T11:28:40.616Z,29.39
2023-04-05T11:31:18.325Z,30.60
2023-04-05T11:33:55.694Z,30.43
2023-04-05T11:36:33.955Z,30.02
2023-04-05T11:39:22.712Z,30.50
2023-04-05T11:42:04.381Z,30.82
2023-04-05T11:44:43.795Z,30.51
2023-04-05T11:47:12.654Z,30.25
2023-04-05T11:49:42.420Z,30.03
2023-04-05T11:52:16.795Z,29.54
2023-04-05T11:54:49.705Z,30.26
2023-04-05T11:57:23.217Z,30.62
2023-04-05T11:59:52.466Z,30.77
2023-04-05T12:02:21.599Z,30.96
2023-04-05T12:04:57.738Z,31.10
2023-04-05T12:07:32.526Z,31.98
2023-04-05T12:10:13.966Z,33.04
2023-04-05T12:12:44.670Z,33.05
2023-04-05T12:15:14.749Z,33.56
2023-04-05T12:17:49.873Z,33.96
2023-04-05T12:20:22.120Z,34.20
2023-04-05T12:22:52.897Z,34.33
2023-04-05T12:25:21.698Z,34.64
2023-04-05T12:27:49.529Z,35.42
2023-04-05T12:30:19.318Z,36.02
2023-04-05T12:32:54.900Z,36.27
2023-04-05T12:35:27.107Z,36.53
2023-04-05T12:37:57.805Z,36.39
2023-04-05T12:40:25.956Z,35.93
2023-04-05T12:43:02.259Z,36.04
2023-04-05T12:45:31.358Z,35.57
2023-04-05T12:48:00.244Z,34.54
2023-04-05T12:50:30.772Z,34.75
2023-04-05T12:53:01.377Z,33.71
2023-04-05T12:55:30.184Z,33.56
2023-04-05T12:58:02.476Z,32.68
2023-04-05T13:00:31.515Z,33.40
2023-04-05T13:03:00.093Z,33.82
2023-04-05T13:05:30.894Z,33.68
2023-04-05T13:07:59.618Z,34.35
2023-04-05T13:10:27.700Z,34.36
2023-04-05T13:12:55.771Z,34.39
2023-04-05T13:15:23.719Z,34.51
2023-04-05T13:17:53.408Z,34.91
2023-04-05T13:20:21.672Z,35.16
2023-04-05T13:22:50.684Z,35.29
2023-04-05T13:25:18.701Z,35.26
2023-04-05T13:27:46.677Z,35.36
2023-04-05T13:30:14.797Z,35.84
2023-04-05T13:32:42.745Z,36.15
2023-04-05T13:35:11.300Z,36.10
2023-04-05T13:37:39.392Z,36.23
2023-04-05T13:40:08.186Z,36.41
2023-04-05T13:42:36.086Z,36.59
2023-04-05T13:45:05.091Z,36.92
2023-04-05T13:47:32.990Z,36.80
2023-04-05T13:50:01.118Z,36.92
2023-04-05T13:52:29.905Z,36.74
2023-04-05T13:55:01.769Z,37.12
2023-04-05T13:57:32.062Z,36.54
2023-04-05T14:00:00.235Z,36.87
2023-04-05T14:02:28.590Z,36.75
2023-04-05T14:04:56.833Z,36.99
2023-04-05T14:07:24.894Z,37.31
2023-04-05T14:09:52.758Z,37.10
2023-04-05T14:12:20.801Z,36.83
2023-04-05T14:14:49.269Z,36.57
2023-04-05T14:17:18.138Z,36.52
2023-04-05T14:19:46.175Z,36.32
2023-04-05T14:22:14.365Z,36.68
2023-04-05T14:24:42.175Z,36.90
2023-04-05T14:27:10.282Z,37.05
2023-04-05T14:29:38.189Z,36.67
2023-04-05T14:32:21.038Z,36.95
2023-04-05T14:34:49.195Z,36.96
2023-04-05T14:37:18.261Z,36.66
2023-04-05T14:39:47.117Z,36.79
2023-04-05T14:42:15.071Z,36.85
2023-04-05T14:44:42.912Z,37.01
2023-04-05T14:47:10.760Z,36.80
2023-04-05T14:49:38.779Z,36.60
2023-04-05T14:52:06.649Z,36.90
2023-04-05T14:54:34.531Z,36.93
2023-04-05T14:57:02.617Z,36.91
2023-04-05T14:59:31.016Z,36.69
2023-04-05T15:01:58.970Z,36.17
2023-04-05T15:04:27.854Z,36.66
2023-04-05T15:06:56.051Z,36.63
2023-04-05T15:09:23.830Z,36.50
2023-04-05T15:11:52.987Z,36.11
2023-04-05T15:14:31.215Z,36.29
2023-04-05T15:17:00.243Z,36.67
2023-04-05T15:19:28.267Z,36.84
2023-04-05T15:21:56.238Z,36.75
2023-04-05T15:24:23.959Z,36.79
2023-04-05T15:26:51.837Z,37.19
2023-04-05T15:29:19.718Z,37.69
2023-04-05T15:31:47.785Z,37.39
2023-04-05T15:34:15.908Z,37.78
2023-04-05T15:36:43.864Z,37.77
2023-04-05T15:39:12.252Z,37.87
2023-04-05T15:41:40.153Z,38.14
2023-04-05T15:44:08.025Z,38.28
2023-04-05T15:46:36.238Z,37.94
2023-04-05T15:49:04.562Z,37.81
2023-04-05T15:51:34.358Z,37.69
2023-04-05T15:54:03.811Z,37.56
2023-04-05T15:56:32.219Z,37.68
2023-04-05T15:59:00.459Z,37.82
2023-04-05T16:01:28.777Z,37.87
2023-04-05T16:03:56.690Z,38.03
2023-04-05T16:06:28.494Z,37.82
2023-04-05T16:08:56.640Z,37.73
2023-04-05T16:11:25.162Z,37.82
2023-04-05T16:13:54.254Z,37.78
2023-04-05T16:16:32.549Z,38.01
2023-04-05T16:19:07.500Z,38.09
2023-04-05T16:21:35.444Z,38.11
2023-04-05T16:24:04.206Z,38.18
2023-04-05T16:26:32.097Z,38.09
2023-04-05T16:29:00.582Z,38.25
2023-04-05T16:31:28.951Z,38.27
2023-04-05T16:33:57.185Z,38.71
2023-04-05T16:36:24.981Z,38.82
2023-04-05T16:38:52.814Z,38.75
2023-04-05T16:41:20.654Z,38.79
2023-04-05T16:43:48.445Z,39.07
2023-04-05T16:46:16.444Z,38.95
2023-04-05T16:48:44.642Z,39.26
2023-04-05T16:51:13.150Z,39.33
2023-04-05T16:53:41.030Z,39.45
2023-04-05T16:56:08.963Z,39.63
2023-04-05T16:58:37.166Z,39.91
2023-04-05T17:01:05.746Z,40.04
2023-04-05T17:03:33.546Z,40.28
2023-04-05T17:06:01.802Z,40.94
2023-04-05T17:08:30.297Z,41.01
2023-04-05T17:10:58.220Z,41.31
2023-04-05T17:13:26.588Z,41.94
2023-04-05T17:15:54.476Z,41.87
2023-04-05T17:18:22.303Z,41.90
2023-04-05T17:20:50.072Z,41.84
2023-04-05T17:23:18.139Z,41.92
2023-04-05T17:25:46.114Z,41.84
2023-04-05T17:28:13.977Z,41.97
2023-04-05T17:30:41.726Z,42.24
2023-04-05T17:33:09.912Z,42.73
2023-04-05T17:35:38.116Z,43.09
2023-04-05T17:38:06.082Z,43.28
2023-04-05T17:40:34.013Z,43.53
2023-04-05T17:43:02.075Z,43.94
2023-04-05T17:45:30.074Z,44.07
2023-04-05T17:47:58.182Z,44.63
2023-04-05T17:50:27.564Z,44.93
2023-04-05T17:52:55.800Z,45.21
2023-04-05T17:55:24.507Z,45.74
2023-04-05T17:57:53.363Z,45.84
2023-04-05T18:00:21.343Z,46.16
2023-04-05T18:05:20.400Z,45.83
2023-04-05T18:07:48.450Z,46.21
2023-04-05T18:10:16.705Z,46.50
2023-04-05T18:12:44.576Z,46.94
2023-04-05T18:15:12.569Z,47.53
2023-04-05T18:17:40.689Z,48.25
2023-04-05T18:20:09.177Z,48.68
2023-04-05T18:22:37.155Z,48.89
2023-04-05T18:25:06.703Z,49.52
2023-04-05T18:27:34.585Z,49.33
2023-04-05T18:30:02.461Z,48.87
2023-04-05T18:32:30.387Z,48.25
2023-04-05T18:34:58.680Z,47.96
2023-04-05T18:37:26.516Z,49.18
2023-04-05T18:39:54.396Z,49.28
2023-04-05T18:42:22.345Z,49.16
2023-04-05T18:44:50.560Z,50.05
2023-04-05T18:47:18.774Z,50.27
2023-04-05T18:49:46.616Z,50.24
2023-04-05T18:52:14.621Z,50.62
2023-04-05T18:54:42.720Z,50.45
2023-04-05T18:57:10.589Z,50.00
2023-04-05T18:59:38.441Z,50.20
2023-04-05T19:02:06.755Z,50.38
2023-04-05T19:04:34.702Z,49.99
2023-04-05T19:07:02.743Z,50.39
2023-04-05T19:09:30.933Z,50.66
2023-04-05T19:11:58.738Z,51.00
2023-04-05T19:14:26.840Z,50.83
2023-04-05T19:16:55.086Z,50.53
2023-04-05T19:19:23.230Z,51.17
2023-04-05T19:21:51.050Z,51.23
2023-04-05T19:24:20.898Z,51.28
2023-04-05T19:26:48.878Z,51.25
2023-04-05T19:29:16.762Z,51.32
2023-04-05T19:31:44.951Z,52.93
2023-04-05T19:34:12.960Z,53.02
2023-04-05T19:36:41.911Z,52.63
2023-04-05T19:39:10.724Z,52.88
2023-04-05T19:41:38.484Z,52.48
2023-04-05T19:44:14.274Z,52.70
2023-04-05T19:46:42.750Z,52.63
2023-04-05T19:49:14.164Z,52.65
2023-04-05T19:51:42.550Z,52.28
2023-04-05T19:54:13.152Z,52.05
2023-04-05T19:56:42.107Z,53.24
2023-04-05T19:59:13.087Z,53.41
2023-04-05T20:01:42.131Z,52.93
2023-04-05T20:04:15.320Z,53.13
2023-04-05T20:06:47.596Z,52.94
2023-04-05T20:09:18.232Z,52.45
2023-04-05T20:11:59.573Z,52.87
2023-04-05T20:14:41.058Z,53.69
2023-04-05T20:17:09.889Z,54.01
2023-04-05T20:19:39.920Z,53.09
2023-04-05T20:22:09.613Z,54.58
2023-04-05T20:24:38.909Z,55.34
2023-04-05T20:27:06.872Z,54.85
2023-04-05T20:29:36.227Z,55.30
2023-04-05T20:32:05.932Z,54.75
2023-04-05T20:34:36.622Z,54.55
2023-04-05T20:37:09.955Z,54.88
2023-04-05T20:39:38.221Z,55.36
2023-04-05T20:42:07.404Z,55.38
2023-04-05T20:44:35.352Z,55.46
2023-04-05T20:47:03.231Z,55.00
2023-04-05T20:49:31.164Z,55.24
2023-04-05T20:51:59.777Z,55.71
2023-04-05T20:54:27.568Z,55.45
2023-04-05T20:56:55.499Z,55.75
2023-04-05T20:59:23.377Z,56.20
2023-04-05T21:01:51.423Z,56.86
2023-04-05T21:04:19.281Z,56.54
2023-04-05T21:06:47.193Z,57.53
2023-04-05T21:09:14.968Z,57.49
2023-04-05T21:11:42.795Z,57.11
2023-04-05T21:14:11.129Z,57.00
2023-04-05T21:16:38.971Z,57.44
2023-04-05T21:19:07.010Z,56.84
2023-04-05T21:21:35.014Z,57.54
2023-04-05T21:24:02.991Z,58.13
2023-04-05T21:26:30.985Z,58.20
2023-04-05T21:28:58.713Z,58.40
2023-04-05T21:31:27.146Z,58.40
2023-04-05T21:33:55.098Z,58.51
2023-04-05T21:36:22.959Z,58.49
2023-04-05T21:38:51.406Z,59.38
2023-04-05T21:41:19.274Z,59.26
2023-04-05T21:43:47.050Z,59.69
2023-04-05T21:46:14.850Z,60.17
2023-04-05T21:48:42.701Z,60.32
2023-04-05T21:51:10.770Z,60.38
2023-04-05T21:53:38.591Z,60.69
2023-04-05T21:56:06.506Z,60.76
2023-04-05T21:58:34.213Z,60.59
2023-04-05T22:01:02.016Z,60.92
2023-04-05T22:03:29.992Z,61.20
2023-04-05T22:05:57.839Z,61.43
2023-04-05T22:08:26.890Z,61.56
2023-04-05T22:10:55.126Z,61.44
2023-04-05T22:13:22.909Z,61.68
2023-04-05T22:15:50.652Z,61.85
2023-04-05T22:18:18.489Z,62.22
2023-04-05T22:20:46.497Z,64.17
2023-04-05T22:23:14.478Z,62.63
2023-04-05T22:25:42.359Z,57.63
2023-04-05T22:28:10.332Z,56.12
2023-04-05T22:30:43.833Z,57.27
2023-04-05T22:33:15.085Z,58.11
2023-04-05T22:35:43.264Z,58.62
2023-04-05T22:38:11.351Z,59.11
2023-04-05T22:40:39.280Z,59.51
2023-04-05T22:43:07.457Z,59.96
2023-04-05T22:45:35.512Z,60.27
2023-04-05T22:48:04.394Z,60.53
2023-04-05T22:50:33.070Z,60.69
2023-04-05T22:53:00.976Z,60.96
2023-04-05T22:55:29.106Z,60.96
2023-04-05T22:57:56.903Z,61.34
2023-04-05T23:00:24.896Z,61.77
2023-04-05T23:02:52.792Z,62.05
2023-04-05T23:05:20.623Z,61.99
2023-04-05T23:07:48.396Z,61.96
2023-04-05T23:10:16.794Z,62.12
2023-04-05T23:12:46.451Z,63.55
2023-04-05T23:15:14.807Z,62.86
2023-04-05T23:17:42.592Z,58.94
2023-04-05T23:20:11.212Z,54.70
2023-04-05T23:22:39.064Z,54.69
2023-04-05T23:25:08.179Z,55.81
2023-04-05T23:27:35.933Z,56.89
2023-04-05T23:30:04.321Z,57.41
2023-04-05T23:32:32.136Z,58.15
2023-04-05T23:34:59.933Z,58.79
2023-04-05T23:37:27.718Z,59.21
2023-04-05T23:39:55.662Z,59.39
2023-04-05T23:42:23.506Z,59.69
2023-04-05T23:44:51.317Z,60.13
2023-04-05T23:47:18.987Z,60.68
2023-04-05T23:49:46.843Z,61.04
2023-04-05T23:52:14.724Z,61.44
2023-04-05T23:54:42.422Z,61.58
2023-04-05T23:57:10.384Z,61.88
2023-04-05T23:59:38.297Z,63.52
